sensor_id;sensor_type;location;lat;lon;timestamp;pressure;altitude;pressure_sealevel;temperature;humidity
58955;BME280;45815;52.334;5.024;2023-04-19T00:00:16;102861.00;;;9.90;100.00
58955;BME280;45815;52.334;5.024;2023-04-19T00:02:42;102864.31;;;9.86;100.00
58955;BME280;45815;52.334;5.024;2023-04-19T00:05:07;102863.38;;;9.85;100.00
58955;BME280;45815;52.334;5.024;2023-04-19T00:07:33;102852.47;;;9.78;100.00
58955;BME280;45815;52.334;5.024;2023-04-19T00:09:58;102869.38;;;9.83;100.00
58955;BME280;45815;52.334;5.024;2023-04-19T00:12:24;102862.25;;;9.80;100.00
58955;BME280;45815;52.334;5.024;2023-04-19T00:14:49;102865.69;;;9.79;100.00
58955;BME280;45815;52.334;5.024;2023-04-19T00:17:14;102860.44;;;9.79;100.00
58955;BME280;45815;52.334;5.024;2023-04-19T00:19:40;102859.47;;;9.77;100.00
58955;BME280;45815;52.334;5.024;2023-04-19T00:22:06;102861.09;;;9.75;100.00
58955;BME280;45815;52.334;5.024;2023-04-19T00:24:31;102861.91;;;9.74;100.00
58955;BME280;45815;52.334;5.024;2023-04-19T00:26:56;102857.31;;;9.70;100.00
58955;BME280;45815;52.334;5.024;2023-04-19T00:29:23;102854.69;;;9.70;100.00
58955;BME280;45815;52.334;5.024;2023-04-19T00:31:48;102856.31;;;9.68;100.00
58955;BME280;45815;52.334;5.024;2023-04-19T00:34:14;102851.91;;;9.67;100.00
58955;BME280;45815;52.334;5.024;2023-04-19T00:36:40;102857.97;;;9.66;100.00
58955;BME280;45815;52.334;5.024;2023-04-19T00:39:05;102856.97;;;9.64;100.00
58955;BME280;45815;52.334;5.024;2023-04-19T00:41:30;102847.22;;;9.61;100.00
58955;BME280;45815;52.334;5.024;2023-04-19T00:43:56;102845.97;;;9.55;100.00
58955;BME280;45815;52.334;5.024;2023-04-19T00:46:21;102846.16;;;9.58;100.00
58955;BME280;45815;52.334;5.024;2023-04-19T00:48:48;102832.81;;;9.53;100.00
58955;BME280;45815;52.334;5.024;2023-04-19T00:51:14;102838.03;;;9.53;100.00
58955;BME280;45815;52.334;5.024;2023-04-19T00:53:40;102837.13;;;9.52;100.00
58955;BME280;45815;52.334;5.024;2023-04-19T00:56:05;102837.13;;;9.52;100.00
58955;BME280;45815;52.334;5.024;2023-04-19T00:58:31;102834.50;;;9.52;100.00
58955;BME280;45815;52.334;5.024;2023-04-19T01:00:57;102829.94;;;9.48;100.00
58955;BME280;45815;52.334;5.024;2023-04-19T01:03:24;102832.59;;;9.50;100.00
58955;BME280;45815;52.334;5.024;2023-04-19T01:05:52;102832.81;;;9.53;100.00
58955;BME280;45815;52.334;5.024;2023-04-19T01:08:17;102828.94;;;9.46;100.00
58955;BME280;45815;52.334;5.024;2023-04-19T01:10:43;102830.19;;;9.53;100.00
58955;BME280;45815;52.334;5.024;2023-04-19T01:13:09;102828.44;;;9.54;100.00
58955;BME280;45815;52.334;5.024;2023-04-19T01:15:36;102838.84;;;9.52;100.00
58955;BME280;45815;52.334;5.024;2023-04-19T01:18:02;102827.56;;;9.53;100.00
58955;BME280;45815;52.334;5.024;2023-04-19T01:20:27;102835.31;;;9.51;100.00
58955;BME280;45815;52.334;5.024;2023-04-19T01:22:52;102837.13;;;9.52;100.00
58955;BME280;45815;52.334;5.024;2023-04-19T01:25:19;102831.13;;;9.55;100.00
58955;BME280;45815;52.334;5.024;2023-04-19T01:27:44;102831.22;;;9.57;100.00
58955;BME280;45815;52.334;5.024;2023-04-19T01:30:10;102832.88;;;9.55;100.00
58955;BME280;45815;52.334;5.024;2023-04-19T01:32:36;102823.75;;;9.48;100.00
58955;BME280;45815;52.334;5.024;2023-04-19T01:35:01;102831.88;;;9.52;100.00
58955;BME280;45815;52.334;5.024;2023-04-19T01:37:28;102838.78;;;9.50;100.00
58955;BME280;45815;52.334;5.024;2023-04-19T01:39:54;102829.97;;;9.50;100.00
58955;BME280;45815;52.334;5.024;2023-04-19T01:42:19;102835.16;;;9.48;100.00
58955;BME280;45815;52.334;5.024;2023-04-19T01:44:45;102831.56;;;9.46;100.00
58955;BME280;45815;52.334;5.024;2023-04-19T01:47:10;102834.25;;;9.48;100.00
58955;BME280;45815;52.334;5.024;2023-04-19T01:49:36;102824.69;;;9.48;100.00
58955;BME280;45815;52.334;5.024;2023-04-19T01:52:01;102827.22;;;9.47;100.00
58955;BME280;45815;52.334;5.024;2023-04-19T01:54:26;102829.72;;;9.45;100.00
58955;BME280;45815;52.334;5.024;2023-04-19T01:56:52;102828.09;;;9.47;100.00
58955;BME280;45815;52.334;5.024;2023-04-19T01:59:18;102829.97;;;9.50;100.00
58955;BME280;45815;52.334;5.024;2023-04-19T02:01:44;102832.69;;;9.51;100.00
58955;BME280;45815;52.334;5.024;2023-04-19T02:04:09;102833.44;;;9.49;100.00
58955;BME280;45815;52.334;5.024;2023-04-19T02:06:35;102830.97;;;9.52;100.00
58955;BME280;45815;52.334;5.024;2023-04-19T02:09:02;102833.53;;;9.50;100.00
58955;BME280;45815;52.334;5.024;2023-04-19T02:11:28;102827.47;;;9.51;100.00
58955;BME280;45815;52.334;5.024;2023-04-19T02:13:53;102821.38;;;9.52;100.00
58955;BME280;45815;52.334;5.024;2023-04-19T02:16:19;102805.34;;;9.46;100.00
58955;BME280;45815;52.334;5.024;2023-04-19T02:18:45;102829.44;;;9.56;100.00
58955;BME280;45815;52.334;5.024;2023-04-19T02:21:11;102826.09;;;9.58;100.00
58955;BME280;45815;52.334;5.024;2023-04-19T02:23:36;102823.53;;;9.60;100.00
58955;BME280;45815;52.334;5.024;2023-04-19T02:26:02;102825.19;;;9.58;100.00
58955;BME280;45815;52.334;5.024;2023-04-19T02:28:31;102821.56;;;9.56;100.00
58955;BME280;45815;52.334;5.024;2023-04-19T02:30:57;102823.38;;;9.57;100.00
58955;BME280;45815;52.334;5.024;2023-04-19T02:33:24;102831.59;;;9.63;100.00
58955;BME280;45815;52.334;5.024;2023-04-19T02:35:50;102834.25;;;9.64;100.00
58955;BME280;45815;52.334;5.024;2023-04-19T02:38:15;102836.81;;;9.63;100.00
58955;BME280;45815;52.334;5.024;2023-04-19T02:40:41;102837.06;;;9.67;100.00
58955;BME280;45815;52.334;5.024;2023-04-19T02:43:07;102842.56;;;9.72;100.00
58955;BME280;45815;52.334;5.024;2023-04-19T02:45:32;102842.56;;;9.72;100.00
58955;BME280;45815;52.334;5.024;2023-04-19T02:47:57;102846.09;;;9.72;100.00
58955;BME280;45815;52.334;5.024;2023-04-19T02:50:24;102850.69;;;9.77;100.00
58955;BME280;45815;52.334;5.024;2023-04-19T02:52:50;102847.34;;;9.79;100.00
58955;BME280;45815;52.334;5.024;2023-04-19T02:55:17;102848.97;;;9.77;100.00
58955;BME280;45815;52.334;5.024;2023-04-19T02:57:44;102850.75;;;9.78;100.00
58955;BME280;45815;52.334;5.024;2023-04-19T03:00:10;102843.88;;;9.80;100.00
58955;BME280;45815;52.334;5.024;2023-04-19T03:02:40;102846.59;;;9.82;100.00
58955;BME280;45815;52.334;5.024;2023-04-19T03:05:06;102849.31;;;9.83;100.00
58955;BME280;45815;52.334;5.024;2023-04-19T03:07:31;102844.97;;;9.84;100.00
58955;BME280;45815;52.334;5.024;2023-04-19T03:09:57;102842.25;;;9.82;100.00
58955;BME280;45815;52.334;5.024;2023-04-19T03:12:23;102845.84;;;9.84;100.00
58955;BME280;45815;52.334;5.024;2023-04-19T03:14:49;102846.69;;;9.83;100.00
58955;BME280;45815;52.334;5.024;2023-04-19T03:17:14;102840.63;;;9.84;100.00
58955;BME280;45815;52.334;5.024;2023-04-19T03:19:40;102842.25;;;9.82;100.00
58955;BME280;45815;52.334;5.024;2023-04-19T03:22:06;102843.22;;;9.84;100.00
58955;BME280;45815;52.334;5.024;2023-04-19T03:24:32;102842.41;;;9.85;100.00
58955;BME280;45815;52.334;5.024;2023-04-19T03:27:05;102838.81;;;9.83;100.00
58955;BME280;45815;52.334;5.024;2023-04-19T03:29:31;102842.41;;;9.85;100.00
58955;BME280;45815;52.334;5.024;2023-04-19T03:32:03;102840.63;;;9.84;100.00
58955;BME280;45815;52.334;5.024;2023-04-19T03:34:29;102844.22;;;9.86;100.00
58955;BME280;45815;52.334;5.024;2023-04-19T03:36:54;102832.66;;;9.83;100.00
58955;BME280;45815;52.334;5.024;2023-04-19T03:39:20;102837.84;;;9.81;100.00
58955;BME280;45815;52.334;5.024;2023-04-19T03:41:49;102841.34;;;9.82;100.00
58955;BME280;45815;52.334;5.024;2023-04-19T03:44:32;102836.00;;;9.80;100.00
58955;BME280;45815;52.334;5.024;2023-04-19T03:47:00;102843.06;;;9.81;100.00
58955;BME280;45815;52.334;5.024;2023-04-19T03:49:28;102841.44;;;9.83;100.00
58955;BME280;45815;52.334;5.024;2023-04-19T03:52:01;102840.75;;;9.87;100.00
58955;BME280;45815;52.334;5.024;2023-04-19T03:54:27;102837.34;;;9.88;100.00
58955;BME280;45815;52.334;5.024;2023-04-19T03:56:52;102834.53;;;9.85;100.00
58955;BME280;45815;52.334;5.024;2023-04-19T03:59:18;102832.50;;;9.80;100.00
58955;BME280;45815;52.334;5.024;2023-04-19T04:01:43;102829.63;;;9.75;100.00
58955;BME280;45815;52.334;5.024;2023-04-19T04:04:09;102841.00;;;9.76;100.00
58955;BME280;45815;52.334;5.024;2023-04-19T04:06:36;102835.50;;;9.71;100.00
58955;BME280;45815;52.334;5.024;2023-04-19T04:09:01;102836.41;;;9.71;100.00
58955;BME280;45815;52.334;5.024;2023-04-19T04:11:26;102825.84;;;9.70;100.00
58955;BME280;45815;52.334;5.024;2023-04-19T04:13:53;102829.53;;;9.73;100.00
58955;BME280;45815;52.334;5.024;2023-04-19T04:16:22;102827.72;;;9.72;100.00
58955;BME280;45815;52.334;5.024;2023-04-19T04:18:49;102827.72;;;9.72;100.00
58955;BME280;45815;52.334;5.024;2023-04-19T04:21:15;102831.09;;;9.70;100.00
58955;BME280;45815;52.334;5.024;2023-04-19T04:23:44;102836.34;;;9.70;100.00
58955;BME280;45815;52.334;5.024;2023-04-19T04:26:17;102818.28;;;9.60;100.00
58955;BME280;45815;52.334;5.024;2023-04-19T04:29:04;102834.34;;;9.66;100.00
58955;BME280;45815;52.334;5.024;2023-04-19T04:31:30;102825.69;;;9.67;100.00
58955;BME280;45815;52.334;5.024;2023-04-19T04:33:56;102830.69;;;9.62;100.00
58955;BME280;45815;52.334;5.024;2023-04-19T04:36:21;102828.75;;;9.60;100.00
58955;BME280;45815;52.334;5.024;2023-04-19T04:38:49;102826.97;;;9.59;100.00
58955;BME280;45815;52.334;5.024;2023-04-19T04:41:14;102827.56;;;9.53;100.00
58955;BME280;45815;52.334;5.024;2023-04-19T04:43:41;102836.22;;;9.52;100.00
58955;BME280;45815;52.334;5.024;2023-04-19T04:46:06;102833.34;;;9.47;100.00
58955;BME280;45815;52.334;5.024;2023-04-19T04:48:36;102832.34;;;9.45;100.00
58955;BME280;45815;52.334;5.024;2023-04-19T04:51:03;102809.09;;;9.35;100.00
58955;BME280;45815;52.334;5.024;2023-04-19T04:53:30;102828.47;;;9.39;100.00
58955;BME280;45815;52.334;5.024;2023-04-19T04:55:56;102828.41;;;9.37;100.00
58955;BME280;45815;52.334;5.024;2023-04-19T04:58:21;102830.22;;;9.38;100.00
58955;BME280;45815;52.334;5.024;2023-04-19T05:00:55;102823.81;;;9.33;100.00
58955;BME280;45815;52.334;5.024;2023-04-19T05:03:21;102827.44;;;9.35;100.00
58955;BME280;45815;52.334;5.024;2023-04-19T05:05:52;102825.53;;;9.33;100.00
58955;BME280;45815;52.334;5.024;2023-04-19T05:08:18;102825.63;;;9.34;100.00
58955;BME280;45815;52.334;5.024;2023-04-19T05:10:43;102832.75;;;9.37;100.00
58955;BME280;45815;52.334;5.024;2023-04-19T05:13:10;102819.47;;;9.34;100.00
58955;BME280;45815;52.334;5.024;2023-04-19T05:15:37;102823.97;;;9.36;100.00
58955;BME280;45815;52.334;5.024;2023-04-19T05:18:05;102828.31;;;9.36;100.00
58955;BME280;45815;52.334;5.024;2023-04-19T05:20:30;102841.16;;;9.31;100.00
58955;BME280;45815;52.334;5.024;2023-04-19T05:23:04;102831.41;;;9.28;100.00
58955;BME280;45815;52.334;5.024;2023-04-19T05:25:32;102841.91;;;9.28;100.00
58955;BME280;45815;52.334;5.024;2023-04-19T05:27:58;102834.78;;;9.26;100.00
58955;BME280;45815;52.334;5.024;2023-04-19T05:30:25;102830.16;;;9.22;100.00
58955;BME280;45815;52.334;5.024;2023-04-19T05:32:50;102829.91;;;9.17;100.00
58955;BME280;45815;52.334;5.024;2023-04-19T05:35:17;102832.88;;;9.23;100.00
58955;BME280;45815;52.334;5.024;2023-04-19T05:37:42;102828.69;;;9.27;100.00
58955;BME280;45815;52.334;5.024;2023-04-19T05:40:08;102834.88;;;9.27;100.00
58955;BME280;45815;52.334;5.024;2023-04-19T05:42:34;102835.03;;;9.30;100.00
58955;BME280;45815;52.334;5.024;2023-04-19T05:45:01;102823.91;;;9.35;100.00
58955;BME280;45815;52.334;5.024;2023-04-19T05:47:26;102829.16;;;9.35;100.00
58955;BME280;45815;52.334;5.024;2023-04-19T05:50:12;102828.25;;;9.34;100.00
58955;BME280;45815;52.334;5.024;2023-04-19T05:52:44;102828.25;;;9.34;100.00
58955;BME280;45815;52.334;5.024;2023-04-19T05:55:10;102837.06;;;9.36;100.00
58955;BME280;45815;52.334;5.024;2023-04-19T05:57:40;102838.53;;;9.31;100.00
58955;BME280;45815;52.334;5.024;2023-04-19T06:00:06;102835.66;;;9.26;100.00
58955;BME280;45815;52.334;5.024;2023-04-19T06:02:44;102843.00;;;9.32;100.00
58955;BME280;45815;52.334;5.024;2023-04-19T06:05:11;102844.94;;;9.36;100.00
58955;BME280;45815;52.334;5.024;2023-04-19T06:07:37;102852.63;;;9.33;100.00
58955;BME280;45815;52.334;5.024;2023-04-19T06:10:03;102851.84;;;9.34;100.00
58955;BME280;45815;52.334;5.024;2023-04-19T06:12:29;102861.34;;;9.32;100.00
58955;BME280;45815;52.334;5.024;2023-04-19T06:14:54;102860.34;;;9.30;100.00
58955;BME280;45815;52.334;5.024;2023-04-19T06:17:20;102853.47;;;9.32;100.00
58955;BME280;45815;52.334;5.024;2023-04-19T06:19:53;102854.63;;;9.37;100.00
58955;BME280;45815;52.334;5.024;2023-04-19T06:22:18;102858.13;;;9.38;100.00
58955;BME280;45815;52.334;5.024;2023-04-19T06:24:45;102850.28;;;9.38;100.00
58955;BME280;45815;52.334;5.024;2023-04-19T06:27:11;102860.66;;;9.36;100.00
58955;BME280;45815;52.334;5.024;2023-04-19T06:29:36;102852.91;;;9.38;100.00
58955;BME280;45815;52.334;5.024;2023-04-19T06:32:01;102855.63;;;9.39;100.00
58955;BME280;45815;52.334;5.024;2023-04-19T06:34:27;102866.16;;;9.41;100.00
58955;BME280;45815;52.334;5.024;2023-04-19T06:36:52;102868.06;;;9.43;100.00
58955;BME280;45815;52.334;5.024;2023-04-19T06:39:18;102863.00;;;9.46;100.00
58955;BME280;45815;52.334;5.024;2023-04-19T06:41:44;102858.56;;;9.45;100.00
58955;BME280;45815;52.334;5.024;2023-04-19T06:44:14;102866.53;;;9.47;100.00
58955;BME280;45815;52.334;5.024;2023-04-19T06:46:40;102853.56;;;9.50;100.00
58955;BME280;45815;52.334;5.024;2023-04-19T06:49:05;102868.56;;;9.52;100.00
58955;BME280;45815;52.334;5.024;2023-04-19T06:51:32;102852.69;;;9.49;100.00
58955;BME280;45815;52.334;5.024;2023-04-19T06:53:57;102858.09;;;9.52;100.00
58955;BME280;45815;52.334;5.024;2023-04-19T06:56:46;102858.09;;;9.52;100.00
58955;BME280;45815;52.334;5.024;2023-04-19T06:59:17;102853.56;;;9.65;100.00
58955;BME280;45815;52.334;5.024;2023-04-19T07:01:43;102864.03;;;9.65;100.00
58955;BME280;45815;52.334;5.024;2023-04-19T07:04:09;102871.41;;;9.72;100.00
58955;BME280;45815;52.334;5.024;2023-04-19T07:06:35;102862.88;;;9.76;100.00
58955;BME280;45815;52.334;5.024;2023-04-19T07:09:02;102869.13;;;9.78;100.00
58955;BME280;45815;52.334;5.024;2023-04-19T07:11:29;102858.56;;;9.77;100.00
58955;BME280;45815;52.334;5.024;2023-04-19T07:13:54;102867.72;;;9.85;100.00
58955;BME280;45815;52.334;5.024;2023-04-19T07:16:20;102872.25;;;9.87;100.00
58955;BME280;45815;52.334;5.024;2023-04-19T07:18:45;102874.81;;;9.86;100.00
58955;BME280;45815;52.334;5.024;2023-04-19T07:21:12;102872.44;;;9.90;100.00
58955;BME280;45815;52.334;5.024;2023-04-19T07:23:38;102866.69;;;9.98;100.00
58955;BME280;45815;52.334;5.024;2023-04-19T07:26:03;102863.41;;;10.02;100.00
58955;BME280;45815;52.334;5.024;2023-04-19T07:28:29;102870.97;;;10.12;100.00
58955;BME280;45815;52.334;5.024;2023-04-19T07:30:55;102856.50;;;10.04;100.00
58955;BME280;45815;52.334;5.024;2023-04-19T07:33:22;102860.22;;;10.07;100.00
58955;BME280;45815;52.334;5.024;2023-04-19T07:35:47;102867.69;;;10.16;100.00
58955;BME280;45815;52.334;5.024;2023-04-19T07:38:13;102862.84;;;10.24;100.00
58955;BME280;45815;52.334;5.024;2023-04-19T07:40:38;102860.97;;;10.38;100.00
58955;BME280;45815;52.334;5.024;2023-04-19T07:43:03;102849.13;;;10.46;100.00
58955;BME280;45815;52.334;5.024;2023-04-19T07:45:29;102849.47;;;10.52;100.00
58955;BME280;45815;52.334;5.024;2023-04-19T07:47:55;102856.97;;;10.62;100.00
58955;BME280;45815;52.334;5.024;2023-04-19T07:50:20;102863.53;;;10.70;100.00
58955;BME280;45815;52.334;5.024;2023-04-19T07:52:46;102866.53;;;10.78;100.00
58955;BME280;45815;52.334;5.024;2023-04-19T07:55:11;102865.78;;;10.81;100.00
58955;BME280;45815;52.334;5.024;2023-04-19T07:57:37;102857.00;;;10.80;100.00
58955;BME280;45815;52.334;5.024;2023-04-19T08:00:02;102856.72;;;10.92;100.00
58955;BME280;45815;52.334;5.024;2023-04-19T08:02:43;102866.34;;;11.09;100.00
58955;BME280;45815;52.334;5.024;2023-04-19T08:05:10;102849.53;;;11.06;100.00
58955;BME280;45815;52.334;5.024;2023-04-19T08:07:37;102856.50;;;11.23;100.00
58955;BME280;45815;52.334;5.024;2023-04-19T08:10:03;102862.44;;;11.37;100.00
58955;BME280;45815;52.334;5.024;2023-04-19T08:12:29;102861.13;;;11.47;100.00
58955;BME280;45815;52.334;5.024;2023-04-19T08:14:54;102854.75;;;11.59;100.00
58955;BME280;45815;52.334;5.024;2023-04-19T08:17:20;102856.22;;;11.72;100.00
58955;BME280;45815;52.334;5.024;2023-04-19T08:19:48;102855.81;;;11.82;100.00
58955;BME280;45815;52.334;5.024;2023-04-19T08:22:14;102858.41;;;12.00;100.00
58955;BME280;45815;52.334;5.024;2023-04-19T08:24:40;102854.41;;;12.28;100.00
58955;BME280;45815;52.334;5.024;2023-04-19T08:27:05;102865.25;;;12.55;100.00
58955;BME280;45815;52.334;5.024;2023-04-19T08:29:31;102865.00;;;12.70;100.00
58955;BME280;45815;52.334;5.024;2023-04-19T08:31:57;102855.25;;;12.88;100.00
58955;BME280;45815;52.334;5.024;2023-04-19T08:34:23;102866.75;;;13.12;100.00
58955;BME280;45815;52.334;5.024;2023-04-19T08:36:48;102864.72;;;13.27;99.61
58955;BME280;45815;52.334;5.024;2023-04-19T08:39:14;102858.81;;;13.55;100.00
58955;BME280;45815;52.334;5.024;2023-04-19T08:41:40;102864.00;;;13.75;96.52
58955;BME280;45815;52.334;5.024;2023-04-19T08:44:05;102854.25;;;13.96;96.87
58955;BME280;45815;52.334;5.024;2023-04-19T08:46:31;102852.56;;;14.22;94.63
58955;BME280;45815;52.334;5.024;2023-04-19T08:48:58;102856.03;;;14.45;95.78
58955;BME280;45815;52.334;5.024;2023-04-19T08:51:25;102849.25;;;14.53;88.77
58955;BME280;45815;52.334;5.024;2023-04-19T08:53:51;102851.91;;;14.77;90.06
58955;BME280;45815;52.334;5.024;2023-04-19T08:56:16;102846.66;;;14.79;85.72
58955;BME280;45815;52.334;5.024;2023-04-19T08:58:42;102843.31;;;14.85;85.75
58955;BME280;45815;52.334;5.024;2023-04-19T09:01:07;102842.28;;;15.07;86.33
58955;BME280;45815;52.334;5.024;2023-04-19T09:03:33;102843.94;;;15.03;82.10
58955;BME280;45815;52.334;5.024;2023-04-19T09:06:02;102840.59;;;15.09;80.13
58955;BME280;45815;52.334;5.024;2023-04-19T09:08:28;102839.19;;;15.20;83.53
58955;BME280;45815;52.334;5.024;2023-04-19T09:11:00;102837.66;;;15.28;75.65
58955;BME280;45815;52.334;5.024;2023-04-19T09:13:26;102837.88;;;15.34;76.49
58955;BME280;45815;52.334;5.024;2023-04-19T09:15:52;102833.91;;;15.20;77.67
58955;BME280;45815;52.334;5.024;2023-04-19T09:18:18;102839.88;;;15.41;78.80
58955;BME280;45815;52.334;5.024;2023-04-19T09:20:45;102836.34;;;15.43;76.27
58955;BME280;45815;52.334;5.024;2023-04-19T09:23:12;102841.94;;;15.52;74.56
58955;BME280;45815;52.334;5.024;2023-04-19T09:25:39;102838.34;;;15.50;73.37
58955;BME280;45815;52.334;5.024;2023-04-19T09:28:12;102845.81;;;15.63;78.73
58955;BME280;45815;52.334;5.024;2023-04-19T09:30:38;102831.75;;;15.94;80.74
58955;BME280;45815;52.334;5.024;2023-04-19T09:33:04;102821.66;;;16.11;78.70
58955;BME280;45815;52.334;5.024;2023-04-19T09:35:43;102833.28;;;16.16;72.72
58955;BME280;45815;52.334;5.024;2023-04-19T09:38:10;102834.78;;;16.40;79.52
58955;BME280;45815;52.334;5.024;2023-04-19T09:40:37;102835.44;;;16.31;77.42
58955;BME280;45815;52.334;5.024;2023-04-19T09:43:03;102829.78;;;16.51;77.32
58955;BME280;45815;52.334;5.024;2023-04-19T09:45:42;102824.38;;;16.46;74.43
58955;BME280;45815;52.334;5.024;2023-04-19T09:48:08;102816.66;;;16.55;75.93
58955;BME280;45815;52.334;5.024;2023-04-19T09:50:36;102820.69;;;16.76;76.85
58955;BME280;45815;52.334;5.024;2023-04-19T09:53:15;102821.91;;;16.87;76.42
58955;BME280;45815;52.334;5.024;2023-04-19T09:55:41;102820.22;;;16.91;76.72
58955;BME280;45815;52.334;5.024;2023-04-19T09:58:07;102817.81;;;17.01;74.61
58955;BME280;45815;52.334;5.024;2023-04-19T10:00:33;102819.31;;;16.90;72.35
58955;BME280;45815;52.334;5.024;2023-04-19T10:02:59;102822.78;;;16.86;69.98
58955;BME280;45815;52.334;5.024;2023-04-19T10:05:25;102823.91;;;16.97;72.38
58955;BME280;45815;52.334;5.024;2023-04-19T10:07:51;102816.09;;;17.03;69.67
58955;BME280;45815;52.334;5.024;2023-04-19T10:10:17;102824.34;;;17.14;73.41
58955;BME280;45815;52.334;5.024;2023-04-19T10:12:47;102817.38;;;17.19;69.28
58955;BME280;45815;52.334;5.024;2023-04-19T10:15:13;102821.06;;;17.26;70.21
58955;BME280;45815;52.334;5.024;2023-04-19T10:17:40;102814.88;;;17.27;69.28
58955;BME280;45815;52.334;5.024;2023-04-19T10:20:09;102808.84;;;17.33;67.38
58955;BME280;45815;52.334;5.024;2023-04-19T10:22:37;102801.75;;;17.33;69.89
58955;BME280;45815;52.334;5.024;2023-04-19T10:25:14;102799.44;;;17.48;71.33
58955;BME280;45815;52.334;5.024;2023-04-19T10:27:42;102797.94;;;17.61;66.81
58955;BME280;45815;52.334;5.024;2023-04-19T10:30:24;102803.78;;;17.45;57.22
58955;BME280;45815;52.334;5.024;2023-04-19T10:32:54;102800.59;;;17.61;60.71
58955;BME280;45815;52.334;5.024;2023-04-19T10:35:27;102805.03;;;17.61;58.83
58955;BME280;45815;52.334;5.024;2023-04-19T10:43:27;102801.84;;;17.77;63.42
58955;BME280;45815;52.334;5.024;2023-04-19T10:45:54;102795.59;;;17.75;59.62
58955;BME280;45815;52.334;5.024;2023-04-19T10:51:16;102793.91;;;17.80;53.50
58955;BME280;45815;52.334;5.024;2023-04-19T10:53:47;102799.72;;;18.03;58.25
58955;BME280;45815;52.334;5.024;2023-04-19T10:56:14;102793.00;;;18.24;57.45
58955;BME280;45815;52.334;5.024;2023-04-19T11:01:34;102795.47;;;18.13;52.93
58955;BME280;45815;52.334;5.024;2023-04-19T11:04:04;102784.13;;;18.22;55.17
58955;BME280;45815;52.334;5.024;2023-04-19T11:06:30;102785.25;;;18.34;53.41
58955;BME280;45815;52.334;5.024;2023-04-19T11:08:56;102769.25;;;18.33;54.38
58955;BME280;45815;52.334;5.024;2023-04-19T11:11:22;102769.38;;;18.39;54.73
58955;BME280;45815;52.334;5.024;2023-04-19T11:13:49;102771.22;;;18.43;55.81
58955;BME280;45815;52.334;5.024;2023-04-19T11:16:15;102769.66;;;18.56;57.67
58955;BME280;45815;52.334;5.024;2023-04-19T11:18:40;102760.75;;;18.54;54.79
58955;BME280;45815;52.334;5.024;2023-04-19T11:21:06;102773.22;;;18.58;52.42
58955;BME280;45815;52.334;5.024;2023-04-19T11:23:31;102755.19;;;18.39;48.90
58955;BME280;45815;52.334;5.024;2023-04-19T11:25:57;102752.53;;;18.40;50.18
58955;BME280;45815;52.334;5.024;2023-04-19T11:28:23;102741.31;;;18.58;49.04
58955;BME280;45815;52.334;5.024;2023-04-19T11:30:48;102730.19;;;18.81;52.88
58955;BME280;45815;52.334;5.024;2023-04-19T11:33:14;102748.75;;;18.77;48.64
58955;BME280;45815;52.334;5.024;2023-04-19T11:35:42;102752.31;;;18.80;47.38
58955;BME280;45815;52.334;5.024;2023-04-19T11:38:07;102742.72;;;18.89;45.74
58955;BME280;45815;52.334;5.024;2023-04-19T11:40:33;102742.88;;;19.00;45.80
58955;BME280;45815;52.334;5.024;2023-04-19T11:43:02;102736.00;;;19.13;43.19
58955;BME280;45815;52.334;5.024;2023-04-19T11:45:31;102726.44;;;19.30;44.95
58955;BME280;45815;52.334;5.024;2023-04-19T11:47:57;102724.66;;;19.31;46.55
58955;BME280;45815;52.334;5.024;2023-04-19T11:50:41;102726.66;;;19.47;47.23
58955;BME280;45815;52.334;5.024;2023-04-19T11:53:16;102722.41;;;19.63;42.71
58955;BME280;45815;52.334;5.024;2023-04-19T11:55:43;102720.91;;;19.84;46.10
58955;BME280;45815;52.334;5.024;2023-04-19T11:58:25;102711.25;;;19.95;39.38
58955;BME280;45815;52.334;5.024;2023-04-19T12:00:53;102713.97;;;19.99;42.70
58955;BME280;45815;52.334;5.024;2023-04-19T12:03:22;102708.69;;;20.07;42.35
58955;BME280;45815;52.334;5.024;2023-04-19T12:05:58;102704.34;;;20.17;40.34
58955;BME280;45815;52.334;5.024;2023-04-19T12:08:38;102708.84;;;20.27;38.63
58955;BME280;45815;52.334;5.024;2023-04-19T12:11:04;102704.41;;;20.26;40.83
58955;BME280;45815;52.334;5.024;2023-04-19T12:13:31;102697.28;;;20.23;40.76
58955;BME280;45815;52.334;5.024;2023-04-19T12:15:57;102700.06;;;20.36;42.74
58955;BME280;45815;52.334;5.024;2023-04-19T12:18:23;102705.47;;;20.48;41.55
58955;BME280;45815;52.334;5.024;2023-04-19T12:20:50;102697.59;;;20.59;40.92
58955;BME280;45815;52.334;5.024;2023-04-19T12:23:17;102705.75;;;20.82;42.92
58955;BME280;45815;52.334;5.024;2023-04-19T12:25:45;102703.94;;;20.78;40.65
58955;BME280;45815;52.334;5.024;2023-04-19T12:28:13;102708.44;;;20.88;41.50
58955;BME280;45815;52.334;5.024;2023-04-19T12:30:39;102696.91;;;20.95;40.95
58955;BME280;45815;52.334;5.024;2023-04-19T12:33:06;102702.31;;;20.98;40.77
58955;BME280;45815;52.334;5.024;2023-04-19T12:35:32;102702.34;;;21.09;43.35
58955;BME280;45815;52.334;5.024;2023-04-19T12:37:58;102693.50;;;21.19;46.41
58955;BME280;45815;52.334;5.024;2023-04-19T12:40:25;102700.66;;;21.29;43.11
58955;BME280;45815;52.334;5.024;2023-04-19T12:42:51;102692.69;;;21.36;44.17
58955;BME280;45815;52.334;5.024;2023-04-19T12:45:18;102695.34;;;21.36;42.14
58955;BME280;45815;52.334;5.024;2023-04-19T12:47:44;102694.41;;;21.27;41.04
58955;BME280;45815;52.334;5.024;2023-04-19T12:50:11;102678.38;;;21.27;41.06
58955;BME280;45815;52.334;5.024;2023-04-19T12:52:37;102682.06;;;21.45;40.17
58955;BME280;45815;52.334;5.024;2023-04-19T12:55:03;102684.72;;;21.43;39.16
58955;BME280;45815;52.334;5.024;2023-04-19T12:57:29;102685.63;;;21.48;39.12
58955;BME280;45815;52.334;5.024;2023-04-19T12:59:54;102679.41;;;21.53;43.13